Aviation Digital Data Service (ADDS)

Output produced by METARs form (1555 UTC 12 December 2017)
found at http://www.aviationweather.gov/adds/metars/
 
METAR text: VGHS 121530Z 00000KT 3500 HZ NSC 23/18 Q1014 NOSIG
Conditions at: VGHS (DHAKA , BD) observed 1530 UTC 12 December 2017
Temperature: 23.0°C (73°F)
Dewpoint: 18.0°C (64°F) [RH = 73%]
Pressure (altimeter): 29.94 inches Hg (1014.0 mb)
Winds: calm
Visibility: 2.17 miles (3.49 km)
Ceiling: at least 12,000 feet AGL
Clouds: sky clear below 12,000 feet AGL
Weather: HZ  (haze)

METAR text: VGHS 121500Z 27005KT 3500 HZ NSC 23/18 Q1014 NOSIG
Conditions at: VGHS (DHAKA , BD) observed 1500 UTC 12 December 2017
Temperature: 23.0°C (73°F)
Dewpoint: 18.0°C (64°F) [RH = 73%]
Pressure (altimeter): 29.94 inches Hg (1014.0 mb)
Winds: from the W (270 degrees) at 6 MPH (5 knots; 2.6 m/s)
Visibility: 2.17 miles (3.49 km)
Ceiling: at least 12,000 feet AGL
Clouds: sky clear below 12,000 feet AGL
Weather: HZ  (haze)

METAR text: VGHS 121430Z 27002KT 3500 HZ NSC 24/19 Q1014 NOSIG
Conditions at: VGHS (DHAKA , BD) observed 1430 UTC 12 December 2017
Temperature: 24.0°C (75°F)
Dewpoint: 19.0°C (66°F) [RH = 74%]
Pressure (altimeter): 29.94 inches Hg (1014.0 mb)
Winds: from the W (270 degrees) at 2 MPH (2 knots; 1.0 m/s)
Visibility: 2.17 miles (3.49 km)
Ceiling: at least 12,000 feet AGL
Clouds: sky clear below 12,000 feet AGL
Weather: HZ  (haze)

METAR text: VGHS 121400Z 28002KT 3500 HZ NSC 24/18 Q1014 NOSIG
Conditions at: VGHS (DHAKA , BD) observed 1400 UTC 12 December 2017
Temperature: 24.0°C (75°F)
Dewpoint: 18.0°C (64°F) [RH = 69%]
Pressure (altimeter): 29.94 inches Hg (1014.0 mb)
Winds: from the W (280 degrees) at 2 MPH (2 knots; 1.0 m/s)
Visibility: 2.17 miles (3.49 km)
Ceiling: at least 12,000 feet AGL
Clouds: sky clear below 12,000 feet AGL
Weather: HZ  (haze)

METAR text: VGHS 121330Z 28004KT 3500 HZ NSC 24/18 Q1014 NOSIG
Conditions at: VGHS (DHAKA , BD) observed 1330 UTC 12 December 2017
Temperature: 24.0°C (75°F)
Dewpoint: 18.0°C (64°F) [RH = 69%]
Pressure (altimeter): 29.94 inches Hg (1014.0 mb)
Winds: from the W (280 degrees) at 5 MPH (4 knots; 2.1 m/s)
Visibility: 2.17 miles (3.49 km)
Ceiling: at least 12,000 feet AGL
Clouds: sky clear below 12,000 feet AGL
Weather: HZ  (haze)

METAR text: VGHS 121300Z 30002KT 4000 HZ NSC 24/18 Q1013 NOSIG
Conditions at: VGHS (DHAKA , BD) observed 1300 UTC 12 December 2017
Temperature: 24.0°C (75°F)
Dewpoint: 18.0°C (64°F) [RH = 69%]
Pressure (altimeter): 29.91 inches Hg (1013.0 mb)
Winds: from the WNW (300 degrees) at 2 MPH (2 knots; 1.0 m/s)
Visibility: 2.49 miles (4.01 km)
Ceiling: at least 12,000 feet AGL
Clouds: sky clear below 12,000 feet AGL
Weather: HZ  (haze)

METAR text: VGHS 121230Z 27003KT 4000 HZ NSC 25/18 Q1013 NOSIG
Conditions at: VGHS (DHAKA , BD) observed 1230 UTC 12 December 2017
Temperature: 25.0°C (77°F)
Dewpoint: 18.0°C (64°F) [RH = 65%]
Pressure (altimeter): 29.91 inches Hg (1013.0 mb)
Winds: from the W (270 degrees) at 3 MPH (3 knots; 1.6 m/s)
Visibility: 2.49 miles (4.01 km)
Ceiling: at least 12,000 feet AGL
Clouds: sky clear below 12,000 feet AGL
Weather: HZ  (haze)

METAR text: VGHS 121200Z 26003KT 4000 HZ NSC 25/17 Q1012 NOSIG
Conditions at: VGHS (DHAKA , BD) observed 1200 UTC 12 December 2017
Temperature: 25.0°C (77°F)
Dewpoint: 17.0°C (63°F) [RH = 61%]
Pressure (altimeter): 29.88 inches Hg (1012.0 mb)
Winds: from the W (260 degrees) at 3 MPH (3 knots; 1.6 m/s)
Visibility: 2.49 miles (4.01 km)
Ceiling: at least 12,000 feet AGL
Clouds: sky clear below 12,000 feet AGL
Weather: HZ  (haze)

METAR text: VGHS 121130Z 27003KT 4000 HZ NSC 26/17 Q1012 NOSIG
Conditions at: VGHS (DHAKA , BD) observed 1130 UTC 12 December 2017
Temperature: 26.0°C (79°F)
Dewpoint: 17.0°C (63°F) [RH = 58%]
Pressure (altimeter): 29.88 inches Hg (1012.0 mb)
Winds: from the W (270 degrees) at 3 MPH (3 knots; 1.6 m/s)
Visibility: 2.49 miles (4.01 km)
Ceiling: at least 12,000 feet AGL
Clouds: sky clear below 12,000 feet AGL
Weather: HZ  (haze)

METAR text: VGHS 121100Z 28003KT 4000 HZ NSC 26/16 Q1012 NOSIG
Conditions at: VGHS (DHAKA , BD) observed 1100 UTC 12 December 2017
Temperature: 26.0°C (79°F)
Dewpoint: 16.0°C (61°F) [RH = 54%]
Pressure (altimeter): 29.88 inches Hg (1012.0 mb)
Winds: from the W (280 degrees) at 3 MPH (3 knots; 1.6 m/s)
Visibility: 2.49 miles (4.01 km)
Ceiling: at least 12,000 feet AGL
Clouds: sky clear below 12,000 feet AGL
Weather: HZ  (haze)

METAR text: VGHS 121030Z 27005KT 4000 HZ NSC 27/16 Q1012 NOSIG
Conditions at: VGHS (DHAKA , BD) observed 1030 UTC 12 December 2017
Temperature: 27.0°C (81°F)
Dewpoint: 16.0°C (61°F) [RH = 51%]
Pressure (altimeter): 29.88 inches Hg (1012.0 mb)
Winds: from the W (270 degrees) at 6 MPH (5 knots; 2.6 m/s)
Visibility: 2.49 miles (4.01 km)
Ceiling: at least 12,000 feet AGL
Clouds: sky clear below 12,000 feet AGL
Weather: HZ  (haze)

METAR text: VGHS 121000Z 27004KT 4000 HZ FEW015 27/15 Q1012 NOSIG
Conditions at: VGHS (DHAKA , BD) observed 1000 UTC 12 December 2017
Temperature: 27.0°C (81°F)
Dewpoint: 15.0°C (59°F) [RH = 48%]
Pressure (altimeter): 29.88 inches Hg (1012.0 mb)
Winds: from the W (270 degrees) at 5 MPH (4 knots; 2.1 m/s)
Visibility: 2.49 miles (4.01 km)
Ceiling: at least 12,000 feet AGL
Clouds: few clouds at 1500 feet AGL
Weather: HZ  (haze)

METAR text: VGHS 120930Z 33005KT 4000 HZ SCT015 28/15 Q1012 NOSIG
Conditions at: VGHS (DHAKA , BD) observed 0930 UTC 12 December 2017
Temperature: 28.0°C (82°F)
Dewpoint: 15.0°C (59°F) [RH = 45%]
Pressure (altimeter): 29.88 inches Hg (1012.0 mb)
Winds: from the NNW (330 degrees) at 6 MPH (5 knots; 2.6 m/s)
Visibility: 2.49 miles (4.01 km)
Ceiling: at least 12,000 feet AGL
Clouds: scattered clouds at 1500 feet AGL
Weather: HZ  (haze)

METAR text: VGHS 120900Z 31006KT 4000 HZ SCT015 28/15 Q1012 NOSIG
Conditions at: VGHS (DHAKA , BD) observed 0900 UTC 12 December 2017
Temperature: 28.0°C (82°F)
Dewpoint: 15.0°C (59°F) [RH = 45%]
Pressure (altimeter): 29.88 inches Hg (1012.0 mb)
Winds: from the NW (310 degrees) at 7 MPH (6 knots; 3.1 m/s)
Visibility: 2.49 miles (4.01 km)
Ceiling: at least 12,000 feet AGL
Clouds: scattered clouds at 1500 feet AGL
Weather: HZ  (haze)

METAR text: VGHS 120830Z 33006KT 4000 HZ SCT025 28/16 Q1012 NOSIG
Conditions at: VGHS (DHAKA , BD) observed 0830 UTC 12 December 2017
Temperature: 28.0°C (82°F)
Dewpoint: 16.0°C (61°F) [RH = 48%]
Pressure (altimeter): 29.88 inches Hg (1012.0 mb)
Winds: from the NNW (330 degrees) at 7 MPH (6 knots; 3.1 m/s)
Visibility: 2.49 miles (4.01 km)
Ceiling: at least 12,000 feet AGL
Clouds: scattered clouds at 2500 feet AGL
Weather: HZ  (haze)

METAR text: VGHS 120800Z 32005KT 4000 HZ SCT025 28/16 Q1013 NOSIG
Conditions at: VGHS (DHAKA , BD) observed 0800 UTC 12 December 2017
Temperature: 28.0°C (82°F)
Dewpoint: 16.0°C (61°F) [RH = 48%]
Pressure (altimeter): 29.91 inches Hg (1013.0 mb)
Winds: from the NW (320 degrees) at 6 MPH (5 knots; 2.6 m/s)
Visibility: 2.49 miles (4.01 km)
Ceiling: at least 12,000 feet AGL
Clouds: scattered clouds at 2500 feet AGL
Weather: HZ  (haze)

METAR text: VGHS 120730Z 32006KT 4000 HZ SCT025 28/16 Q1013 NOSIG
Conditions at: VGHS (DHAKA , BD) observed 0730 UTC 12 December 2017
Temperature: 28.0°C (82°F)
Dewpoint: 16.0°C (61°F) [RH = 48%]
Pressure (altimeter): 29.91 inches Hg (1013.0 mb)
Winds: from the NW (320 degrees) at 7 MPH (6 knots; 3.1 m/s)
Visibility: 2.49 miles (4.01 km)
Ceiling: at least 12,000 feet AGL
Clouds: scattered clouds at 2500 feet AGL
Weather: HZ  (haze)

METAR text: VGHS 120700Z 32003KT 4000 HZ SCT025 28/16 Q1013 NOSIG
Conditions at: VGHS (DHAKA , BD) observed 0700 UTC 12 December 2017
Temperature: 28.0°C (82°F)
Dewpoint: 16.0°C (61°F) [RH = 48%]
Pressure (altimeter): 29.91 inches Hg (1013.0 mb)
Winds: from the NW (320 degrees) at 3 MPH (3 knots; 1.6 m/s)
Visibility: 2.49 miles (4.01 km)
Ceiling: at least 12,000 feet AGL
Clouds: scattered clouds at 2500 feet AGL
Weather: HZ  (haze)

METAR text: VGHS 120630Z 34004KT 4000 HZ SCT025 29/19 Q1014 NOSIG
Conditions at: VGHS (DHAKA , BD) observed 0630 UTC 12 December 2017
Temperature: 29.0°C (84°F)
Dewpoint: 19.0°C (66°F) [RH = 55%]
Pressure (altimeter): 29.94 inches Hg (1014.0 mb)
Winds: from the NNW (340 degrees) at 5 MPH (4 knots; 2.1 m/s)
Visibility: 2.49 miles (4.01 km)
Ceiling: at least 12,000 feet AGL
Clouds: scattered clouds at 2500 feet AGL
Weather: HZ  (haze)

METAR text: VGHS 120600Z 34006KT 4000 HZ SCT025 29/19 Q1015 NOSIG
Conditions at: VGHS (DHAKA , BD) observed 0600 UTC 12 December 2017
Temperature: 29.0°C (84°F)
Dewpoint: 19.0°C (66°F) [RH = 55%]
Pressure (altimeter): 29.97 inches Hg (1015.0 mb)
Winds: from the NNW (340 degrees) at 7 MPH (6 knots; 3.1 m/s)
Visibility: 2.49 miles (4.01 km)
Ceiling: at least 12,000 feet AGL
Clouds: scattered clouds at 2500 feet AGL
Weather: HZ  (haze)

METAR text: VGHS 120530Z 33005KT 3500 HZ SCT025 28/18 Q1015 NOSIG
Conditions at: VGHS (DHAKA , BD) observed 0530 UTC 12 December 2017
Temperature: 28.0°C (82°F)
Dewpoint: 18.0°C (64°F) [RH = 55%]
Pressure (altimeter): 29.97 inches Hg (1015.0 mb)
Winds: from the NNW (330 degrees) at 6 MPH (5 knots; 2.6 m/s)
Visibility: 2.17 miles (3.49 km)
Ceiling: at least 12,000 feet AGL
Clouds: scattered clouds at 2500 feet AGL
Weather: HZ  (haze)

METAR text: VGHS 120500Z 31004KT 3500 HZ FEW015 SCT100 28/18 Q1016 NOSIG
Conditions at: VGHS (DHAKA , BD) observed 0500 UTC 12 December 2017
Temperature: 28.0°C (82°F)
Dewpoint: 18.0°C (64°F) [RH = 55%]
Pressure (altimeter): 30.00 inches Hg (1016.0 mb)
Winds: from the NW (310 degrees) at 5 MPH (4 knots; 2.1 m/s)
Visibility: 2.17 miles (3.49 km)
Ceiling: at least 12,000 feet AGL
Clouds: few clouds at 1500 feet AGL
scattered clouds at 10000 feet AGL
Weather: HZ  (haze)

METAR text: VGHS 120430Z 31006KT 2600 HZ NSC 27/21 Q1016 BECMG S/VIS 3000M
Conditions at: VGHS (DHAKA , BD) observed 0430 UTC 12 December 2017
Temperature: 27.0°C (81°F)
Dewpoint: 21.0°C (70°F) [RH = 70%]
Pressure (altimeter): 30.00 inches Hg (1016.0 mb)
Winds: from the NW (310 degrees) at 7 MPH (6 knots; 3.1 m/s)
Visibility: 1.62 miles (2.61 km)
Ceiling: at least 12,000 feet AGL
Clouds: sky clear below 12,000 feet AGL
Weather: HZ  (haze)

METAR text: VGHS 120400Z 31003KT 2200 BR NSC 26/21 Q1016 BECMG S/VIS 2500M
Conditions at: VGHS (DHAKA , BD) observed 0400 UTC 12 December 2017
Temperature: 26.0°C (79°F)
Dewpoint: 21.0°C (70°F) [RH = 74%]
Pressure (altimeter): 30.00 inches Hg (1016.0 mb)
Winds: from the NW (310 degrees) at 3 MPH (3 knots; 1.6 m/s)
Visibility: 1.37 miles (2.20 km)
Ceiling: at least 12,000 feet AGL
Clouds: sky clear below 12,000 feet AGL
Weather: BR  (mist)

METAR text: VGHS 120330Z 24003KT 1800 BR NSC 25/21 Q1016 BECMG S/VIS 2000M
Conditions at: VGHS (DHAKA , BD) observed 0330 UTC 12 December 2017
Temperature: 25.0°C (77°F)
Dewpoint: 21.0°C (70°F) [RH = 79%]
Pressure (altimeter): 30.00 inches Hg (1016.0 mb)
Winds: from the WSW (240 degrees) at 3 MPH (3 knots; 1.6 m/s)
Visibility: 1.12 miles (1.80 km)
Ceiling: at least 12,000 feet AGL
Clouds: sky clear below 12,000 feet AGL
Weather: BR  (mist)

METAR text: VGHS 120300Z 00000KT 1500 BR NSC 24/21 Q1016 BECMG S/VIS 1800M
Conditions at: VGHS (DHAKA , BD) observed 0300 UTC 12 December 2017
Temperature: 24.0°C (75°F)
Dewpoint: 21.0°C (70°F) [RH = 83%]
Pressure (altimeter): 30.00 inches Hg (1016.0 mb)
Winds: calm
Visibility: 0.93 miles (1.50 km)
Ceiling: at least 12,000 feet AGL
Clouds: sky clear below 12,000 feet AGL
Weather: BR  (mist)

METAR text: VGHS 120230Z 26003KT 1200 BR NSC 23/21 Q1016 BECMG S/VIS 1500M
Conditions at: VGHS (DHAKA , BD) observed 0230 UTC 12 December 2017
Temperature: 23.0°C (73°F)
Dewpoint: 21.0°C (70°F) [RH = 89%]
Pressure (altimeter): 30.00 inches Hg (1016.0 mb)
Winds: from the W (260 degrees) at 3 MPH (3 knots; 1.6 m/s)
Visibility: 0.75 miles (1.21 km)
Ceiling: at least 12,000 feet AGL
Clouds: sky clear below 12,000 feet AGL
Weather: BR  (mist)

METAR text: VGHS 120200Z 28003KT 0400 FG BKN002 23/22 Q1015 BECMG S/VIS 0600M
Conditions at: VGHS (DHAKA , BD) observed 0200 UTC 12 December 2017
Temperature: 23.0°C (73°F)
Dewpoint: 22.0°C (72°F) [RH = 94%]
Pressure (altimeter): 29.97 inches Hg (1015.0 mb)
Winds: from the W (280 degrees) at 3 MPH (3 knots; 1.6 m/s)
Visibility: 0.25 miles (0.40 km)
Ceiling: 200 feet AGL
Clouds: broken clouds at 200 feet AGL
Weather: FG  (fog)

METAR text: VGHS 120130Z 30003KT 0200 FG BKN001 22/21 Q1015 BECMG S/VIS 0300M
Conditions at: VGHS (DHAKA , BD) observed 0130 UTC 12 December 2017
Temperature: 22.0°C (72°F)
Dewpoint: 21.0°C (70°F) [RH = 94%]
Pressure (altimeter): 29.97 inches Hg (1015.0 mb)
Winds: from the WNW (300 degrees) at 3 MPH (3 knots; 1.6 m/s)
Visibility: 0.12 miles (0.19 km)
Ceiling: 100 feet AGL
Clouds: broken clouds at 100 feet AGL
Weather: FG  (fog)

METAR text: VGHS 120100Z 30003KT 0100 FG BKN001 21/20 Q1015 BECMG S/VIS 0200M
Conditions at: VGHS (DHAKA , BD) observed 0100 UTC 12 December 2017
Temperature: 21.0°C (70°F)
Dewpoint: 20.0°C (68°F) [RH = 94%]
Pressure (altimeter): 29.97 inches Hg (1015.0 mb)
Winds: from the WNW (300 degrees) at 3 MPH (3 knots; 1.6 m/s)
Visibility: 0.06 miles (0.10 km)
Ceiling: 100 feet AGL
Clouds: broken clouds at 100 feet AGL
Weather: FG  (fog)

METAR text: VGHS 120030Z 29004KT 0050 FG BKN001 21/20 Q1014 NOSIG
Conditions at: VGHS (DHAKA , BD) observed 0030 UTC 12 December 2017
Temperature: 21.0°C (70°F)
Dewpoint: 20.0°C (68°F) [RH = 94%]
Pressure (altimeter): 29.94 inches Hg (1014.0 mb)
Winds: from the WNW (290 degrees) at 5 MPH (4 knots; 2.1 m/s)
Visibility: 0.03 miles (0.05 km)
Ceiling: 100 feet AGL
Clouds: broken clouds at 100 feet AGL
Weather: FG  (fog)

METAR text: VGHS 120000Z 30003KT 0050 FG BKN001 21/20 Q1014 NOSIG
Conditions at: VGHS (DHAKA , BD) observed 0000 UTC 12 December 2017
Temperature: 21.0°C (70°F)
Dewpoint: 20.0°C (68°F) [RH = 94%]
Pressure (altimeter): 29.94 inches Hg (1014.0 mb)
Winds: from the WNW (300 degrees) at 3 MPH (3 knots; 1.6 m/s)
Visibility: 0.03 miles (0.05 km)
Ceiling: 100 feet AGL
Clouds: broken clouds at 100 feet AGL
Weather: FG  (fog)

METAR text: VGHS 112330Z 30003KT 0050 FG BKN001 22/21 Q1013 NOSIG
Conditions at: VGHS (DHAKA , BD) observed 2330 UTC 11 December 2017
Temperature: 22.0°C (72°F)
Dewpoint: 21.0°C (70°F) [RH = 94%]
Pressure (altimeter): 29.91 inches Hg (1013.0 mb)
Winds: from the WNW (300 degrees) at 3 MPH (3 knots; 1.6 m/s)
Visibility: 0.03 miles (0.05 km)
Ceiling: 100 feet AGL
Clouds: broken clouds at 100 feet AGL
Weather: FG  (fog)

METAR text: VGHS 112300Z 27004KT 0050 FG BKN001 22/21 Q1013 NOSIG
Conditions at: VGHS (DHAKA , BD) observed 2300 UTC 11 December 2017
Temperature: 22.0°C (72°F)
Dewpoint: 21.0°C (70°F) [RH = 94%]
Pressure (altimeter): 29.91 inches Hg (1013.0 mb)
Winds: from the W (270 degrees) at 5 MPH (4 knots; 2.1 m/s)
Visibility: 0.03 miles (0.05 km)
Ceiling: 100 feet AGL
Clouds: broken clouds at 100 feet AGL
Weather: FG  (fog)

METAR text: VGHS 112230Z 28005KT 0050 FG BKN001 22/21 Q1013 NOSIG
Conditions at: VGHS (DHAKA , BD) observed 2230 UTC 11 December 2017
Temperature: 22.0°C (72°F)
Dewpoint: 21.0°C (70°F) [RH = 94%]
Pressure (altimeter): 29.91 inches Hg (1013.0 mb)
Winds: from the W (280 degrees) at 6 MPH (5 knots; 2.6 m/s)
Visibility: 0.03 miles (0.05 km)
Ceiling: 100 feet AGL
Clouds: broken clouds at 100 feet AGL
Weather: FG  (fog)

METAR text: VGHS 112200Z 29004KT 0050 FG BKN001 22/21 Q1013 NOSIG
Conditions at: VGHS (DHAKA , BD) observed 2200 UTC 11 December 2017
Temperature: 22.0°C (72°F)
Dewpoint: 21.0°C (70°F) [RH = 94%]
Pressure (altimeter): 29.91 inches Hg (1013.0 mb)
Winds: from the WNW (290 degrees) at 5 MPH (4 knots; 2.1 m/s)
Visibility: 0.03 miles (0.05 km)
Ceiling: 100 feet AGL
Clouds: broken clouds at 100 feet AGL
Weather: FG  (fog)

METAR text: VGHS 112130Z 27003KT 0050 FG BKN001 22/21 Q1013 NOSIG
Conditions at: VGHS (DHAKA , BD) observed 2130 UTC 11 December 2017
Temperature: 22.0°C (72°F)
Dewpoint: 21.0°C (70°F) [RH = 94%]
Pressure (altimeter): 29.91 inches Hg (1013.0 mb)
Winds: from the W (270 degrees) at 3 MPH (3 knots; 1.6 m/s)
Visibility: 0.03 miles (0.05 km)
Ceiling: 100 feet AGL
Clouds: broken clouds at 100 feet AGL
Weather: FG  (fog)

METAR text: VGHS 112100Z 27003KT 0400 FG BKN003 22/21 Q1013 TEMPO S/VIS 0100M
Conditions at: VGHS (DHAKA , BD) observed 2100 UTC 11 December 2017
Temperature: 22.0°C (72°F)
Dewpoint: 21.0°C (70°F) [RH = 94%]
Pressure (altimeter): 29.91 inches Hg (1013.0 mb)
Winds: from the W (270 degrees) at 3 MPH (3 knots; 1.6 m/s)
Visibility: 0.25 miles (0.40 km)
Ceiling: 300 feet AGL
Clouds: broken clouds at 300 feet AGL
Weather: FG  (fog)

METAR text: VGHS 112030Z 27004KT 1400 BRZ SCT012 BKN100 22/20 Q1013 TEMPO S/VIS 1000M
Conditions at: VGHS (DHAKA , BD) observed 2030 UTC 11 December 2017
Temperature: 22.0°C (72°F)
Dewpoint: 20.0°C (68°F) [RH = 88%]
Pressure (altimeter): 29.91 inches Hg (1013.0 mb)
Winds: from the W (270 degrees) at 5 MPH (4 knots; 2.1 m/s)
Visibility: 0.87 miles (1.40 km)
Ceiling: 10000 feet AGL
Clouds: scattered clouds at 1200 feet AGL
broken clouds at 10000 feet AGL
Weather: BR  (mist)

METAR text: VGHS 112000Z 26004KT 3200 HZ SCT015 BKN100 22/19 Q1013 TEMPO S/VIS 2200M
Conditions at: VGHS (DHAKA , BD) observed 2000 UTC 11 December 2017
Temperature: 22.0°C (72°F)
Dewpoint: 19.0°C (66°F) [RH = 83%]
Pressure (altimeter): 29.91 inches Hg (1013.0 mb)
Winds: from the W (260 degrees) at 5 MPH (4 knots; 2.1 m/s)
Visibility: 1.99 miles (3.20 km)
Ceiling: 10000 feet AGL
Clouds: scattered clouds at 1500 feet AGL
broken clouds at 10000 feet AGL
Weather: HZ  (haze)

METAR text: VGHS 111930Z 25003KT 3500 HZ SCT015 BKN100 23/21 Q1013 NOSIG
Conditions at: VGHS (DHAKA , BD) observed 1930 UTC 11 December 2017
Temperature: 23.0°C (73°F)
Dewpoint: 21.0°C (70°F) [RH = 89%]
Pressure (altimeter): 29.91 inches Hg (1013.0 mb)
Winds: from the WSW (250 degrees) at 3 MPH (3 knots; 1.6 m/s)
Visibility: 2.17 miles (3.49 km)
Ceiling: 10000 feet AGL
Clouds: scattered clouds at 1500 feet AGL
broken clouds at 10000 feet AGL
Weather: HZ  (haze)

METAR text: VGHS 111900Z 25004KT 3500 HZ SCT015 BKN100 23/21 Q1013 NOSIG
Conditions at: VGHS (DHAKA , BD) observed 1900 UTC 11 December 2017
Temperature: 23.0°C (73°F)
Dewpoint: 21.0°C (70°F) [RH = 89%]
Pressure (altimeter): 29.91 inches Hg (1013.0 mb)
Winds: from the WSW (250 degrees) at 5 MPH (4 knots; 2.1 m/s)
Visibility: 2.17 miles (3.49 km)
Ceiling: 10000 feet AGL
Clouds: scattered clouds at 1500 feet AGL
broken clouds at 10000 feet AGL
Weather: HZ  (haze)

METAR text: VGHS 111830Z 26005KT 3500 HZ SCT015 BKN100 23/21 Q1013 NOSIG
Conditions at: VGHS (DHAKA , BD) observed 1830 UTC 11 December 2017
Temperature: 23.0°C (73°F)
Dewpoint: 21.0°C (70°F) [RH = 89%]
Pressure (altimeter): 29.91 inches Hg (1013.0 mb)
Winds: from the W (260 degrees) at 6 MPH (5 knots; 2.6 m/s)
Visibility: 2.17 miles (3.49 km)
Ceiling: 10000 feet AGL
Clouds: scattered clouds at 1500 feet AGL
broken clouds at 10000 feet AGL
Weather: HZ  (haze)

METAR text: VGHS 111800Z 26007KT 3500 HZ FEW015 SCT100 23/21 Q1014 NOSIG
Conditions at: VGHS (DHAKA , BD) observed 1800 UTC 11 December 2017
Temperature: 23.0°C (73°F)
Dewpoint: 21.0°C (70°F) [RH = 89%]
Pressure (altimeter): 29.94 inches Hg (1014.0 mb)
Winds: from the W (260 degrees) at 8 MPH (7 knots; 3.6 m/s)
Visibility: 2.17 miles (3.49 km)
Ceiling: at least 12,000 feet AGL
Clouds: few clouds at 1500 feet AGL
scattered clouds at 10000 feet AGL
Weather: HZ  (haze)

METAR text: VGHS 111730Z 24008KT 3500 HZ FEW015 SCT100 23/21 Q1014 NOSIG
Conditions at: VGHS (DHAKA , BD) observed 1730 UTC 11 December 2017
Temperature: 23.0°C (73°F)
Dewpoint: 21.0°C (70°F) [RH = 89%]
Pressure (altimeter): 29.94 inches Hg (1014.0 mb)
Winds: from the WSW (240 degrees) at 9 MPH (8 knots; 4.2 m/s)
Visibility: 2.17 miles (3.49 km)
Ceiling: at least 12,000 feet AGL
Clouds: few clouds at 1500 feet AGL
scattered clouds at 10000 feet AGL
Weather: HZ  (haze)

METAR text: VGHS 111700Z 20006KT 3500 HZ FEW015 SCT100 23/21 Q1014 NOSIG
Conditions at: VGHS (DHAKA , BD) observed 1700 UTC 11 December 2017
Temperature: 23.0°C (73°F)
Dewpoint: 21.0°C (70°F) [RH = 89%]
Pressure (altimeter): 29.94 inches Hg (1014.0 mb)
Winds: from the SSW (200 degrees) at 7 MPH (6 knots; 3.1 m/s)
Visibility: 2.17 miles (3.49 km)
Ceiling: at least 12,000 feet AGL
Clouds: few clouds at 1500 feet AGL
scattered clouds at 10000 feet AGL
Weather: HZ  (haze)

METAR text: VGHS 111630Z 24003KT 3500 HZ FEW015 SCT100 23/21 Q1014 NOSIG
Conditions at: VGHS (DHAKA , BD) observed 1630 UTC 11 December 2017
Temperature: 23.0°C (73°F)
Dewpoint: 21.0°C (70°F) [RH = 89%]
Pressure (altimeter): 29.94 inches Hg (1014.0 mb)
Winds: from the WSW (240 degrees) at 3 MPH (3 knots; 1.6 m/s)
Visibility: 2.17 miles (3.49 km)
Ceiling: at least 12,000 feet AGL
Clouds: few clouds at 1500 feet AGL
scattered clouds at 10000 feet AGL
Weather: HZ  (haze)

METAR text: VGHS 111600Z 21004KT 3500 HZ FEW015 SCT100 23/21 Q1014 NOSIG
Conditions at: VGHS (DHAKA , BD) observed 1600 UTC 11 December 2017
Temperature: 23.0°C (73°F)
Dewpoint: 21.0°C (70°F) [RH = 89%]
Pressure (altimeter): 29.94 inches Hg (1014.0 mb)
Winds: from the SSW (210 degrees) at 5 MPH (4 knots; 2.1 m/s)
Visibility: 2.17 miles (3.49 km)
Ceiling: at least 12,000 feet AGL
Clouds: few clouds at 1500 feet AGL
scattered clouds at 10000 feet AGL
Weather: HZ  (haze)

METAR text: VGHS 111530Z 20004KT 4000 HZ FEW015 SCT100 23/21 Q1014 NOSIG
Conditions at: VGHS (DHAKA , BD) observed 1530 UTC 11 December 2017
Temperature: 23.0°C (73°F)
Dewpoint: 21.0°C (70°F) [RH = 89%]
Pressure (altimeter): 29.94 inches Hg (1014.0 mb)
Winds: from the SSW (200 degrees) at 5 MPH (4 knots; 2.1 m/s)
Visibility: 2.49 miles (4.01 km)
Ceiling: at least 12,000 feet AGL
Clouds: few clouds at 1500 feet AGL
scattered clouds at 10000 feet AGL
Weather: HZ  (haze)

METAR text: VGHS 111500Z 16003KT 4000 HZ FEW015 SCT100 23/21 Q1014 NOSIG
Conditions at: VGHS (DHAKA , BD) observed 1500 UTC 11 December 2017
Temperature: 23.0°C (73°F)
Dewpoint: 21.0°C (70°F) [RH = 89%]
Pressure (altimeter): 29.94 inches Hg (1014.0 mb)
Winds: from the SSE (160 degrees) at 3 MPH (3 knots; 1.6 m/s)
Visibility: 2.49 miles (4.01 km)
Ceiling: at least 12,000 feet AGL
Clouds: few clouds at 1500 feet AGL
scattered clouds at 10000 feet AGL
Weather: HZ  (haze)

METAR text: VGHS 111430Z 14003KT 4000 HZ FEW015 SCT100 23/21 Q1012 NOSIG
Conditions at: VGHS (DHAKA , BD) observed 1430 UTC 11 December 2017
Temperature: 23.0°C (73°F)
Dewpoint: 21.0°C (70°F) [RH = 89%]
Pressure (altimeter): 29.88 inches Hg (1012.0 mb)
Winds: from the SE (140 degrees) at 3 MPH (3 knots; 1.6 m/s)
Visibility: 2.49 miles (4.01 km)
Ceiling: at least 12,000 feet AGL
Clouds: few clouds at 1500 feet AGL
scattered clouds at 10000 feet AGL
Weather: HZ  (haze)

METAR text: VGHS 111400Z 19003KT 4000 HZ SCT100 24/22 Q1013 NOSIG
Conditions at: VGHS (DHAKA , BD) observed 1400 UTC 11 December 2017
Temperature: 24.0°C (75°F)
Dewpoint: 22.0°C (72°F) [RH = 89%]
Pressure (altimeter): 29.91 inches Hg (1013.0 mb)
Winds: from the S (190 degrees) at 3 MPH (3 knots; 1.6 m/s)
Visibility: 2.49 miles (4.01 km)
Ceiling: at least 12,000 feet AGL
Clouds: scattered clouds at 10000 feet AGL
Weather: HZ  (haze)

METAR text: VGHS 111330Z 21002KT 4000 HZ SCT015 SCT100 24/22 Q1013 NOSIG
Conditions at: VGHS (DHAKA , BD) observed 1330 UTC 11 December 2017
Temperature: 24.0°C (75°F)
Dewpoint: 22.0°C (72°F) [RH = 89%]
Pressure (altimeter): 29.91 inches Hg (1013.0 mb)
Winds: from the SSW (210 degrees) at 2 MPH (2 knots; 1.0 m/s)
Visibility: 2.49 miles (4.01 km)
Ceiling: at least 12,000 feet AGL
Clouds: scattered clouds at 1500 feet AGL
scattered clouds at 10000 feet AGL
Weather: HZ  (haze)

METAR text: VGHS 111300Z 19004KT 4000 HZ SCT015 BKN100 24/22 Q1012 NOSIG
Conditions at: VGHS (DHAKA , BD) observed 1300 UTC 11 December 2017
Temperature: 24.0°C (75°F)
Dewpoint: 22.0°C (72°F) [RH = 89%]
Pressure (altimeter): 29.88 inches Hg (1012.0 mb)
Winds: from the S (190 degrees) at 5 MPH (4 knots; 2.1 m/s)
Visibility: 2.49 miles (4.01 km)
Ceiling: 10000 feet AGL
Clouds: scattered clouds at 1500 feet AGL
broken clouds at 10000 feet AGL
Weather: HZ  (haze)

METAR text: VGHS 111230Z 24003KT 4000 HZ SCT015 BKN100 24/21 Q1012 NOSIG
Conditions at: VGHS (DHAKA , BD) observed 1230 UTC 11 December 2017
Temperature: 24.0°C (75°F)
Dewpoint: 21.0°C (70°F) [RH = 83%]
Pressure (altimeter): 29.88 inches Hg (1012.0 mb)
Winds: from the WSW (240 degrees) at 3 MPH (3 knots; 1.6 m/s)
Visibility: 2.49 miles (4.01 km)
Ceiling: 10000 feet AGL
Clouds: scattered clouds at 1500 feet AGL
broken clouds at 10000 feet AGL
Weather: HZ  (haze)

METAR text: VGHS 111200Z 23002KT 4000 HZ SCT015 BKN100 24/21 Q1012 NOSIG
Conditions at: VGHS (DHAKA , BD) observed 1200 UTC 11 December 2017
Temperature: 24.0°C (75°F)
Dewpoint: 21.0°C (70°F) [RH = 83%]
Pressure (altimeter): 29.88 inches Hg (1012.0 mb)
Winds: from the SW (230 degrees) at 2 MPH (2 knots; 1.0 m/s)
Visibility: 2.49 miles (4.01 km)
Ceiling: 10000 feet AGL
Clouds: scattered clouds at 1500 feet AGL
broken clouds at 10000 feet AGL
Weather: HZ  (haze)

METAR text: VGHS 111130Z 23002KT 4000 HZ SCT012 BKN100 25/21 Q1011 NOSIG
Conditions at: VGHS (DHAKA , BD) observed 1130 UTC 11 December 2017
Temperature: 25.0°C (77°F)
Dewpoint: 21.0°C (70°F) [RH = 79%]
Pressure (altimeter): 29.85 inches Hg (1011.0 mb)
Winds: from the SW (230 degrees) at 2 MPH (2 knots; 1.0 m/s)
Visibility: 2.49 miles (4.01 km)
Ceiling: 10000 feet AGL
Clouds: scattered clouds at 1200 feet AGL
broken clouds at 10000 feet AGL
Weather: HZ  (haze)

METAR text: VGHS 111100Z 25002KT 4000 HZ SCT012 BKN100 25/21 Q1011 NOSIG
Conditions at: VGHS (DHAKA , BD) observed 1100 UTC 11 December 2017
Temperature: 25.0°C (77°F)
Dewpoint: 21.0°C (70°F) [RH = 79%]
Pressure (altimeter): 29.85 inches Hg (1011.0 mb)
Winds: from the WSW (250 degrees) at 2 MPH (2 knots; 1.0 m/s)
Visibility: 2.49 miles (4.01 km)
Ceiling: 10000 feet AGL
Clouds: scattered clouds at 1200 feet AGL
broken clouds at 10000 feet AGL
Weather: HZ  (haze)

METAR text: VGHS 111030Z 24003KT 4000 HZ SCT012 BKN100 25/21 Q1011 NOSIG
Conditions at: VGHS (DHAKA , BD) observed 1030 UTC 11 December 2017
Temperature: 25.0°C (77°F)
Dewpoint: 21.0°C (70°F) [RH = 79%]
Pressure (altimeter): 29.85 inches Hg (1011.0 mb)
Winds: from the WSW (240 degrees) at 3 MPH (3 knots; 1.6 m/s)
Visibility: 2.49 miles (4.01 km)
Ceiling: 10000 feet AGL
Clouds: scattered clouds at 1200 feet AGL
broken clouds at 10000 feet AGL
Weather: HZ  (haze)

METAR text: VGHS 111000Z 27004KT 4000 HZ SCT012 BKN100 25/21 Q1011 NOSIG
Conditions at: VGHS (DHAKA , BD) observed 1000 UTC 11 December 2017
Temperature: 25.0°C (77°F)
Dewpoint: 21.0°C (70°F) [RH = 79%]
Pressure (altimeter): 29.85 inches Hg (1011.0 mb)
Winds: from the W (270 degrees) at 5 MPH (4 knots; 2.1 m/s)
Visibility: 2.49 miles (4.01 km)
Ceiling: 10000 feet AGL
Clouds: scattered clouds at 1200 feet AGL
broken clouds at 10000 feet AGL
Weather: HZ  (haze)

METAR text: VGHS 110930Z 27003KT 4000 HZ BKN010 BKN100 25/21 Q1011 NOSIG
Conditions at: VGHS (DHAKA , BD) observed 0930 UTC 11 December 2017
Temperature: 25.0°C (77°F)
Dewpoint: 21.0°C (70°F) [RH = 79%]
Pressure (altimeter): 29.85 inches Hg (1011.0 mb)
Winds: from the W (270 degrees) at 3 MPH (3 knots; 1.6 m/s)
Visibility: 2.49 miles (4.01 km)
Ceiling: 1000 feet AGL
Clouds: broken clouds at 1000 feet AGL
broken clouds at 10000 feet AGL
Weather: HZ  (haze)

METAR text: VGHS 110900Z 28004KT 4000 HZ BKN010 BKN100 25/21 Q1011 NOSIG
Conditions at: VGHS (DHAKA , BD) observed 0900 UTC 11 December 2017
Temperature: 25.0°C (77°F)
Dewpoint: 21.0°C (70°F) [RH = 79%]
Pressure (altimeter): 29.85 inches Hg (1011.0 mb)
Winds: from the W (280 degrees) at 5 MPH (4 knots; 2.1 m/s)
Visibility: 2.49 miles (4.01 km)
Ceiling: 1000 feet AGL
Clouds: broken clouds at 1000 feet AGL
broken clouds at 10000 feet AGL
Weather: HZ  (haze)

METAR text: VGHS 110830Z 28004KT 3500 HZ BKN010 BKN100 25/22 Q1011 TEMPO RA
Conditions at: VGHS (DHAKA , BD) observed 0830 UTC 11 December 2017
Temperature: 25.0°C (77°F)
Dewpoint: 22.0°C (72°F) [RH = 83%]
Pressure (altimeter): 29.85 inches Hg (1011.0 mb)
Winds: from the W (280 degrees) at 5 MPH (4 knots; 2.1 m/s)
Visibility: 2.17 miles (3.49 km)
Ceiling: 1000 feet AGL
Clouds: broken clouds at 1000 feet AGL
broken clouds at 10000 feet AGL
Weather: HZ  (haze)

METAR text: VGHS 110800Z 32004KT 3500 HZ BKN010 OVC100 25/22 Q1011 TEMPO RA
Conditions at: VGHS (DHAKA , BD) observed 0800 UTC 11 December 2017
Temperature: 25.0°C (77°F)
Dewpoint: 22.0°C (72°F) [RH = 83%]
Pressure (altimeter): 29.85 inches Hg (1011.0 mb)
Winds: from the NW (320 degrees) at 5 MPH (4 knots; 2.1 m/s)
Visibility: 2.17 miles (3.49 km)
Ceiling: 1000 feet AGL
Clouds: broken clouds at 1000 feet AGL
overcast cloud deck at 10000 feet AGL
Weather: HZ  (haze)

METAR text: VGHS 110730Z 33005KT 3500 HZ BKN010 OVC100 24/21 Q1011 TEMPO RA
Conditions at: VGHS (DHAKA , BD) observed 0730 UTC 11 December 2017
Temperature: 24.0°C (75°F)
Dewpoint: 21.0°C (70°F) [RH = 83%]
Pressure (altimeter): 29.85 inches Hg (1011.0 mb)
Winds: from the NNW (330 degrees) at 6 MPH (5 knots; 2.6 m/s)
Visibility: 2.17 miles (3.49 km)
Ceiling: 1000 feet AGL
Clouds: broken clouds at 1000 feet AGL
overcast cloud deck at 10000 feet AGL
Weather: HZ  (haze)

METAR text: VGHS 110700Z 32005KT 3500 HZ BKN010 OVC100 24/21 Q1012 TEMPO RA
Conditions at: VGHS (DHAKA , BD) observed 0700 UTC 11 December 2017
Temperature: 24.0°C (75°F)
Dewpoint: 21.0°C (70°F) [RH = 83%]
Pressure (altimeter): 29.88 inches Hg (1012.0 mb)
Winds: from the NW (320 degrees) at 6 MPH (5 knots; 2.6 m/s)
Visibility: 2.17 miles (3.49 km)
Ceiling: 1000 feet AGL
Clouds: broken clouds at 1000 feet AGL
overcast cloud deck at 10000 feet AGL
Weather: HZ  (haze)

METAR text: VGHS 110630Z 34005KT 3200 HZ BKN010 OVC100 24/21 Q1012 BECMG S/VIS 3500M
Conditions at: VGHS (DHAKA , BD) observed 0630 UTC 11 December 2017
Temperature: 24.0°C (75°F)
Dewpoint: 21.0°C (70°F) [RH = 83%]
Pressure (altimeter): 29.88 inches Hg (1012.0 mb)
Winds: from the NNW (340 degrees) at 6 MPH (5 knots; 2.6 m/s)
Visibility: 1.99 miles (3.20 km)
Ceiling: 1000 feet AGL
Clouds: broken clouds at 1000 feet AGL
overcast cloud deck at 10000 feet AGL
Weather: HZ  (haze)

METAR text: VGHS 110600Z 34006KT 2800 BR BKN010 OVC100 24/21 Q1013 NOSIG
Conditions at: VGHS (DHAKA , BD) observed 0600 UTC 11 December 2017
Temperature: 24.0°C (75°F)
Dewpoint: 21.0°C (70°F) [RH = 83%]
Pressure (altimeter): 29.91 inches Hg (1013.0 mb)
Winds: from the NNW (340 degrees) at 7 MPH (6 knots; 3.1 m/s)
Visibility: 1.74 miles (2.80 km)
Ceiling: 1000 feet AGL
Clouds: broken clouds at 1000 feet AGL
overcast cloud deck at 10000 feet AGL
Weather: BR  (mist)

METAR text: VGHS 110530Z 33005KT 2800 BR BKN009 OVC090 23/21 Q1013 TEMPO S/VIS 2500M
Conditions at: VGHS (DHAKA , BD) observed 0530 UTC 11 December 2017
Temperature: 23.0°C (73°F)
Dewpoint: 21.0°C (70°F) [RH = 89%]
Pressure (altimeter): 29.91 inches Hg (1013.0 mb)
Winds: from the NNW (330 degrees) at 6 MPH (5 knots; 2.6 m/s)
Visibility: 1.74 miles (2.80 km)
Ceiling: 900 feet AGL
Clouds: broken clouds at 900 feet AGL
overcast cloud deck at 9000 feet AGL
Weather: BR  (mist)

METAR text: VGHS 110500Z 32007KT 2800 BR BKN009 OVC090 23/21 Q1014 TEMPO S/VIS 2500M
Conditions at: VGHS (DHAKA , BD) observed 0500 UTC 11 December 2017
Temperature: 23.0°C (73°F)
Dewpoint: 21.0°C (70°F) [RH = 89%]
Pressure (altimeter): 29.94 inches Hg (1014.0 mb)
Winds: from the NW (320 degrees) at 8 MPH (7 knots; 3.6 m/s)
Visibility: 1.74 miles (2.80 km)
Ceiling: 900 feet AGL
Clouds: broken clouds at 900 feet AGL
overcast cloud deck at 9000 feet AGL
Weather: BR  (mist)

METAR text: VGHS 110430Z 33006KT 2800 BR BKN009 OVC090 23/21 Q1014 TEMPO S/VIS 2500M
Conditions at: VGHS (DHAKA , BD) observed 0430 UTC 11 December 2017
Temperature: 23.0°C (73°F)
Dewpoint: 21.0°C (70°F) [RH = 89%]
Pressure (altimeter): 29.94 inches Hg (1014.0 mb)
Winds: from the NNW (330 degrees) at 7 MPH (6 knots; 3.1 m/s)
Visibility: 1.74 miles (2.80 km)
Ceiling: 900 feet AGL
Clouds: broken clouds at 900 feet AGL
overcast cloud deck at 9000 feet AGL
Weather: BR  (mist)

METAR text: VGHS 110400Z 33006KT 2800 BR BKN009 OVC090 23/21 Q1014 TEMPO S/VIS 2500M
Conditions at: VGHS (DHAKA , BD) observed 0400 UTC 11 December 2017
Temperature: 23.0°C (73°F)
Dewpoint: 21.0°C (70°F) [RH = 89%]
Pressure (altimeter): 29.94 inches Hg (1014.0 mb)
Winds: from the NNW (330 degrees) at 7 MPH (6 knots; 3.1 m/s)
Visibility: 1.74 miles (2.80 km)
Ceiling: 900 feet AGL
Clouds: broken clouds at 900 feet AGL
overcast cloud deck at 9000 feet AGL
Weather: BR  (mist)